createdAt,value
2023-01-29T00:01:46.153Z,33.38
2023-01-29T00:04:13.765Z,31.60
2023-01-29T00:06:41.352Z,31.13
2023-01-29T00:09:11.404Z,28.98
2023-01-29T00:11:38.972Z,32.97
2023-01-29T00:14:06.572Z,29.30
2023-01-29T00:16:36.714Z,27.83
2023-01-29T00:19:04.515Z,27.48
2023-01-29T00:21:32.357Z,30.90
2023-01-29T00:24:02.655Z,30.33
2023-01-29T00:26:30.421Z,34.83
2023-01-29T00:28:58.145Z,29.80
2023-01-29T00:31:28.716Z,32.03
2023-01-29T00:33:56.592Z,36.92
2023-01-29T00:36:24.156Z,32.28
2023-01-29T00:38:55.409Z,27.95
2023-01-29T00:41:23.001Z,30.70
2023-01-29T00:43:50.660Z,31.27
2023-01-29T00:46:20.949Z,30.27
2023-01-29T00:48:48.807Z,30.95
2023-01-29T00:51:16.358Z,28.27
2023-01-29T00:53:47.118Z,30.15
2023-01-29T00:56:14.893Z,33.92
2023-01-29T00:58:42.458Z,41.67
2023-01-29T01:01:12.547Z,36.70
2023-01-29T01:03:40.160Z,27.98
2023-01-29T01:06:07.753Z,27.73
2023-01-29T01:08:35.800Z,30.15
2023-01-29T01:11:06.275Z,27.77
2023-01-29T01:13:33.926Z,32.10
2023-01-29T01:16:03.935Z,25.38
2023-01-29T01:18:32.480Z,32.33
2023-01-29T01:21:01.053Z,27.08
2023-01-29T01:23:28.839Z,27.38
2023-01-29T01:25:56.407Z,26.95
2023-01-29T01:28:23.964Z,33.22
2023-01-29T01:30:54.144Z,28.58
2023-01-29T01:33:21.769Z,29.60
2023-01-29T01:35:49.441Z,28.55
2023-01-29T01:38:19.469Z,34.20
2023-01-29T01:40:47.278Z,35.28
2023-01-29T01:43:14.870Z,30.67
2023-01-29T01:45:44.946Z,28.67
2023-01-29T01:48:12.504Z,24.58
2023-01-29T01:50:43.130Z,31.55
2023-01-29T01:53:13.248Z,34.22
2023-01-29T01:55:43.759Z,28.33
2023-01-29T01:58:11.392Z,27.55
2023-01-29T02:00:42.546Z,26.20
2023-01-29T02:03:10.289Z,28.98
2023-01-29T02:05:37.961Z,30.08
2023-01-29T02:08:05.753Z,25.55
2023-01-29T02:10:33.253Z,24.83
2023-01-29T02:13:00.841Z,25.45
2023-01-29T02:15:30.658Z,27.30
2023-01-29T02:17:58.335Z,26.67
2023-01-29T02:20:26.151Z,22.08
2023-01-29T02:22:56.796Z,30.67
2023-01-29T02:25:24.521Z,22.67
2023-01-29T02:27:52.281Z,25.38
2023-01-29T02:30:22.190Z,22.23
2023-01-29T02:32:49.845Z,21.35
2023-01-29T02:35:17.507Z,24.52
2023-01-29T02:37:45.095Z,22.38
2023-01-29T02:40:12.675Z,21.58
2023-01-29T02:42:40.319Z,22.05
2023-01-29T02:45:18.512Z,25.77
2023-01-29T02:47:47.921Z,22.98
2023-01-29T02:50:24.035Z,23.38
2023-01-29T02:52:52.558Z,25.13
2023-01-29T02:55:21.421Z,24.98
2023-01-29T02:57:51.925Z,26.02
2023-01-29T03:02:52.370Z,28.75
2023-01-29T03:05:20.083Z,26.38
2023-01-29T03:07:47.977Z,26.95
2023-01-29T03:10:16.795Z,20.70
2023-01-29T03:12:45.040Z,24.98
2023-01-29T03:15:13.937Z,21.50
2023-01-29T03:17:42.661Z,26.08
2023-01-29T03:20:12.696Z,20.90
2023-01-29T03:22:40.631Z,31.38
2023-01-29T03:25:08.204Z,26.80
2023-01-29T03:27:38.416Z,26.17
2023-01-29T03:30:06.178Z,21.42
2023-01-29T03:32:34.857Z,26.77
2023-01-29T03:35:04.720Z,24.40
2023-01-29T03:37:32.576Z,22.65
2023-01-29T03:40:00.633Z,20.75
2023-01-29T03:42:28.891Z,21.27
2023-01-29T03:44:56.822Z,22.73
2023-01-29T03:47:24.528Z,20.83
2023-01-29T03:49:52.430Z,27.27
2023-01-29T03:52:20.204Z,22.73
2023-01-29T03:54:47.959Z,22.92
2023-01-29T03:57:17.752Z,21.70
2023-01-29T03:59:45.743Z,19.00
2023-01-29T04:02:13.515Z,21.02
2023-01-29T04:04:41.585Z,29.35
2023-01-29T04:07:09.543Z,23.33
2023-01-29T04:09:37.448Z,28.20
2023-01-29T04:12:11.964Z,19.05
2023-01-29T04:14:40.914Z,25.25
2023-01-29T04:17:08.539Z,26.00
2023-01-29T04:19:38.379Z,23.50
2023-01-29T04:22:06.094Z,21.10
2023-01-29T04:24:34.305Z,21.77
2023-01-29T04:27:01.979Z,28.75
2023-01-29T04:29:30.278Z,21.23
2023-01-29T04:31:58.001Z,17.70
2023-01-29T04:34:32.442Z,22.38
2023-01-29T04:39:30.174Z,17.20
2023-01-29T04:41:58.070Z,20.67
2023-01-29T04:44:28.060Z,16.10
2023-01-29T04:46:55.676Z,25.08
2023-01-29T04:49:23.299Z,18.23
2023-01-29T04:51:53.543Z,25.70
2023-01-29T04:54:21.088Z,21.02
2023-01-29T04:56:57.305Z,19.05
2023-01-29T04:59:24.909Z,21.17
2023-01-29T05:01:52.596Z,17.25
2023-01-29T05:04:22.665Z,21.00
2023-01-29T05:06:50.769Z,21.48
2023-01-29T05:09:18.505Z,23.48
2023-01-29T05:11:47.453Z,20.15
2023-01-29T05:14:14.994Z,20.42
2023-01-29T05:16:42.628Z,19.95
2023-01-29T05:19:17.316Z,21.13
2023-01-29T05:21:45.026Z,17.92
2023-01-29T05:24:12.874Z,18.13
2023-01-29T05:26:42.783Z,18.70
2023-01-29T05:29:10.356Z,24.50
2023-01-29T05:31:38.134Z,25.58
2023-01-29T05:34:08.079Z,23.52
2023-01-29T05:36:38.364Z,25.45
2023-01-29T05:39:05.896Z,18.58
2023-01-29T05:41:35.817Z,15.50
2023-01-29T05:44:04.093Z,19.05
2023-01-29T05:46:31.906Z,22.75
2023-01-29T05:49:07.108Z,15.75
2023-01-29T05:51:35.001Z,18.35
2023-01-29T05:54:03.005Z,22.10
2023-01-29T05:56:32.933Z,16.58
2023-01-29T05:59:05.375Z,16.92
2023-01-29T06:01:33.359Z,22.52
2023-01-29T06:04:03.431Z,17.02
2023-01-29T06:06:31.555Z,25.25
2023-01-29T06:08:59.307Z,22.45
2023-01-29T06:11:35.245Z,23.45
2023-01-29T06:14:02.919Z,23.92
2023-01-29T06:16:31.197Z,20.70
2023-01-29T06:18:59.104Z,19.38
2023-01-29T06:21:26.842Z,18.33
2023-01-29T06:23:54.407Z,17.85
2023-01-29T06:26:24.500Z,20.38
2023-01-29T06:28:52.220Z,20.65
2023-01-29T06:31:36.685Z,16.73
2023-01-29T06:34:08.280Z,21.38
2023-01-29T06:36:37.415Z,18.50
2023-01-29T06:39:07.092Z,22.13
2023-01-29T06:41:35.865Z,20.00
2023-01-29T06:44:04.045Z,19.00
2023-01-29T06:46:32.506Z,22.42
2023-01-29T06:49:02.432Z,16.33
2023-01-29T06:51:30.142Z,23.10
2023-01-29T06:53:57.806Z,13.63
2023-01-29T06:56:27.811Z,24.08
2023-01-29T06:58:55.363Z,16.85
2023-01-29T07:01:35.826Z,14.82
2023-01-29T07:04:06.292Z,16.77
2023-01-29T07:06:34.733Z,18.05
2023-01-29T07:09:02.330Z,15.57
2023-01-29T07:11:32.541Z,15.75
2023-01-29T07:14:00.475Z,17.27
2023-01-29T07:16:28.150Z,21.05
2023-01-29T07:18:57.886Z,17.08
2023-01-29T07:21:25.661Z,14.50
2023-01-29T07:23:53.241Z,17.77
2023-01-29T07:26:22.989Z,20.77
2023-01-29T07:28:51.033Z,13.93
2023-01-29T07:31:19.034Z,20.50
2023-01-29T07:33:48.828Z,15.93
2023-01-29T07:36:16.645Z,22.27
2023-01-29T07:38:44.215Z,19.45
2023-01-29T07:41:11.936Z,16.85
2023-01-29T07:43:40.935Z,14.50
2023-01-29T07:46:08.791Z,18.02
2023-01-29T07:48:38.844Z,15.77
2023-01-29T07:51:06.594Z,16.88
2023-01-29T07:53:34.171Z,18.27
2023-01-29T07:56:04.392Z,15.18
2023-01-29T07:58:32.316Z,17.35
2023-01-29T08:00:59.883Z,18.92
2023-01-29T08:03:31.025Z,21.42
2023-01-29T08:05:58.862Z,17.77
2023-01-29T08:08:26.553Z,20.58
2023-01-29T08:10:57.766Z,18.75
2023-01-29T08:13:25.309Z,17.52
2023-01-29T08:15:53.066Z,23.38
2023-01-29T08:18:26.772Z,19.92
2023-01-29T08:20:56.863Z,16.05
2023-01-29T08:23:24.407Z,15.75
2023-01-29T08:25:53.122Z,15.10
2023-01-29T08:28:23.270Z,22.70
2023-01-29T08:30:50.976Z,18.50
2023-01-29T08:33:23.788Z,17.65
2023-01-29T08:35:56.725Z,16.45
2023-01-29T08:38:24.230Z,19.70
2023-01-29T08:40:52.112Z,19.90
2023-01-29T08:43:19.898Z,18.70
2023-01-29T08:45:47.456Z,18.60
2023-01-29T08:48:15.231Z,19.10
2023-01-29T08:50:46.364Z,28.67
2023-01-29T08:53:13.971Z,17.80
2023-01-29T08:55:41.474Z,13.75
2023-01-29T08:58:11.682Z,18.95
2023-01-29T09:00:39.317Z,20.17
2023-01-29T09:03:08.255Z,48.55
2023-01-29T09:05:40.033Z,25.30
2023-01-29T09:08:07.580Z,17.13
2023-01-29T09:10:35.159Z,15.18
2023-01-29T09:13:05.004Z,14.32
2023-01-29T09:15:32.571Z,16.70
2023-01-29T09:18:00.131Z,19.65
2023-01-29T09:20:30.380Z,18.67
2023-01-29T09:22:58.089Z,13.13
2023-01-29T09:25:25.695Z,21.27
2023-01-29T09:27:56.008Z,17.45
2023-01-29T09:30:24.254Z,19.23
2023-01-29T09:32:53.878Z,22.05
2023-01-29T09:35:24.579Z,19.10
2023-01-29T09:37:52.420Z,13.23
2023-01-29T09:40:20.048Z,19.27
2023-01-29T09:42:48.506Z,19.00
2023-01-29T09:45:16.395Z,24.35
2023-01-29T09:47:45.025Z,17.27
2023-01-29T09:50:15.326Z,22.95
2023-01-29T09:52:42.881Z,18.42
2023-01-29T09:55:10.537Z,17.50
2023-01-29T09:57:45.883Z,20.52
2023-01-29T10:00:14.442Z,15.65
2023-01-29T10:02:42.171Z,17.83
2023-01-29T10:05:09.737Z,18.00
2023-01-29T10:07:38.264Z,20.10
2023-01-29T10:10:06.073Z,18.58
2023-01-29T10:12:33.769Z,25.70
2023-01-29T10:15:04.522Z,21.27
2023-01-29T10:17:32.661Z,15.85
2023-01-29T10:20:00.188Z,18.90
2023-01-29T10:22:38.264Z,19.88
2023-01-29T10:25:12.124Z,18.40
2023-01-29T10:27:39.692Z,15.80
2023-01-29T10:30:07.400Z,21.17
2023-01-29T10:32:38.191Z,16.30
2023-01-29T10:35:05.827Z,17.58
2023-01-29T10:37:33.724Z,16.35
2023-01-29T10:40:07.618Z,19.98
2023-01-29T10:42:44.183Z,19.67
2023-01-29T10:45:11.803Z,18.17
2023-01-29T10:47:39.672Z,18.30
2023-01-29T10:50:07.837Z,17.20
2023-01-29T10:52:35.388Z,16.48
2023-01-29T10:55:02.964Z,20.92
2023-01-29T10:57:32.004Z,19.33
2023-01-29T10:59:59.515Z,19.38
2023-01-29T11:02:27.074Z,27.42
2023-01-29T11:04:57.753Z,25.15
2023-01-29T11:07:25.749Z,23.40
2023-01-29T11:09:54.042Z,27.40
2023-01-29T11:12:28.246Z,26.80
2023-01-29T11:14:56.541Z,28.27
2023-01-29T11:17:24.713Z,22.67
2023-01-29T11:20:01.909Z,22.70
2023-01-29T11:22:32.489Z,21.17
2023-01-29T11:25:00.201Z,26.90
2023-01-29T11:27:28.003Z,25.35
2023-01-29T11:29:58.367Z,25.75
2023-01-29T11:32:26.584Z,26.48
2023-01-29T11:34:54.335Z,22.17
2023-01-29T11:37:25.839Z,30.50
2023-01-29T11:40:07.152Z,24.50
2023-01-29T11:42:35.121Z,30.77
2023-01-29T11:45:03.444Z,30.38
2023-01-29T11:47:36.173Z,34.88
2023-01-29T11:50:04.512Z,29.17
2023-01-29T11:52:33.883Z,29.45
2023-01-29T11:55:06.104Z,31.33
2023-01-29T11:57:34.467Z,34.17
2023-01-29T12:00:02.593Z,30.05
2023-01-29T12:02:35.149Z,30.65
2023-01-29T12:05:03.869Z,29.50
2023-01-29T12:07:31.917Z,31.92
2023-01-29T12:10:07.668Z,30.05
2023-01-29T12:12:36.494Z,26.20
2023-01-29T12:15:04.194Z,27.23
2023-01-29T12:17:35.802Z,32.33
2023-01-29T12:20:03.677Z,26.15
2023-01-29T12:22:31.947Z,30.05
2023-01-29T12:25:02.720Z,30.20
2023-01-29T12:27:30.469Z,30.35
2023-01-29T12:29:57.971Z,33.60
2023-01-29T12:32:33.249Z,47.17
2023-01-29T12:35:03.607Z,33.03
2023-01-29T12:37:35.576Z,33.13
2023-01-29T12:40:03.601Z,39.35
2023-01-29T12:42:33.875Z,31.10
2023-01-29T12:45:01.512Z,30.33
2023-01-29T12:47:33.966Z,30.17
2023-01-29T12:50:02.776Z,35.65
2023-01-29T12:52:31.409Z,30.65
2023-01-29T12:54:59.053Z,32.95
2023-01-29T12:57:27.267Z,35.63
2023-01-29T12:59:54.899Z,35.97
2023-01-29T13:02:22.842Z,35.22
2023-01-29T13:04:52.841Z,37.17
2023-01-29T13:07:20.461Z,35.40
2023-01-29T13:09:48.706Z,35.80
2023-01-29T13:12:18.634Z,39.65
2023-01-29T13:14:46.704Z,38.38
2023-01-29T13:17:14.581Z,37.38
2023-01-29T13:19:44.415Z,34.92
2023-01-29T13:22:12.092Z,31.88
2023-01-29T13:24:39.758Z,39.47
2023-01-29T13:27:07.626Z,35.75
2023-01-29T13:29:35.261Z,33.70
2023-01-29T13:32:04.365Z,33.47
2023-01-29T13:34:34.570Z,35.45
2023-01-29T13:37:02.769Z,33.47
2023-01-29T13:39:30.750Z,30.90
2023-01-29T13:42:00.682Z,31.77
2023-01-29T13:44:28.271Z,34.83
2023-01-29T13:46:56.246Z,42.00
2023-01-29T13:49:27.029Z,40.25
2023-01-29T13:51:54.649Z,38.78
2023-01-29T13:54:22.381Z,42.72
2023-01-29T13:56:51.461Z,40.53
2023-01-29T13:59:19.070Z,39.97
2023-01-29T14:01:46.721Z,38.58
2023-01-29T14:04:14.507Z,41.92
2023-01-29T14:06:42.265Z,37.78
2023-01-29T14:09:10.213Z,38.88
2023-01-29T14:11:38.155Z,40.20
2023-01-29T14:14:05.681Z,37.65
2023-01-29T14:16:33.670Z,37.17
2023-01-29T14:19:03.564Z,36.35
2023-01-29T14:21:31.359Z,36.55
2023-01-29T14:23:59.412Z,40.25
2023-01-29T14:26:29.254Z,39.28
2023-01-29T14:28:57.017Z,46.70
2023-01-29T14:31:24.916Z,36.90
2023-01-29T14:33:54.880Z,33.78
2023-01-29T14:36:22.548Z,39.00
2023-01-29T14:38:52.539Z,34.65
2023-01-29T14:41:23.690Z,36.85
2023-01-29T14:43:52.183Z,32.53
2023-01-29T14:46:19.763Z,33.25
2023-01-29T14:48:47.923Z,27.65
2023-01-29T14:51:15.858Z,32.92
2023-01-29T14:53:43.510Z,30.00
2023-01-29T14:56:13.404Z,31.70
2023-01-29T14:58:41.504Z,27.77
2023-01-29T15:01:09.146Z,29.73
2023-01-29T15:03:37.973Z,29.58
2023-01-29T15:06:05.710Z,32.10
2023-01-29T15:08:33.229Z,32.50
2023-01-29T15:11:03.122Z,28.15
2023-01-29T15:13:30.979Z,32.30
2023-01-29T15:15:58.516Z,32.10
2023-01-29T15:18:28.430Z,29.88
2023-01-29T15:20:56.154Z,24.40
2023-01-29T15:23:23.724Z,29.40
2023-01-29T15:25:53.632Z,27.73
2023-01-29T15:28:21.447Z,28.88
2023-01-29T15:30:49.061Z,31.15
2023-01-29T15:33:16.713Z,31.25
2023-01-29T15:35:44.417Z,29.45
2023-01-29T15:38:12.024Z,30.10
2023-01-29T15:40:41.941Z,31.23
2023-01-29T15:43:09.969Z,30.13
2023-01-29T15:45:37.589Z,28.13
2023-01-29T15:48:07.470Z,26.25
2023-01-29T15:50:35.446Z,26.92
2023-01-29T15:53:02.988Z,21.27
2023-01-29T15:55:32.866Z,23.88
2023-01-29T15:58:00.634Z,29.27
2023-01-29T16:00:28.283Z,23.85
2023-01-29T16:02:56.014Z,26.50
2023-01-29T16:05:23.746Z,23.92
2023-01-29T16:07:51.226Z,24.23
2023-01-29T16:10:21.205Z,27.40
2023-01-29T16:12:49.056Z,25.15
2023-01-29T16:15:16.847Z,22.52
2023-01-29T16:17:47.249Z,21.50
2023-01-29T16:20:14.883Z,24.90
2023-01-29T16:22:42.531Z,24.92
2023-01-29T16:25:12.246Z,25.98
2023-01-29T16:27:39.959Z,25.63
2023-01-29T16:30:07.558Z,25.63
2023-01-29T16:32:37.409Z,23.92
2023-01-29T16:35:05.211Z,24.92
2023-01-29T16:37:33.487Z,25.48
2023-01-29T16:40:03.404Z,25.85
2023-01-29T16:42:31.253Z,24.15
2023-01-29T16:44:58.928Z,24.20
2023-01-29T16:47:28.743Z,25.30
2023-01-29T16:49:56.534Z,23.58
2023-01-29T16:52:24.103Z,22.27
2023-01-29T16:54:52.454Z,24.50
2023-01-29T16:57:20.028Z,31.85
2023-01-29T16:59:47.543Z,35.10
2023-01-29T17:02:17.385Z,27.70
2023-01-29T17:04:44.995Z,26.00
2023-01-29T17:07:12.653Z,29.45
2023-01-29T17:09:40.423Z,20.48
2023-01-29T17:12:08.374Z,29.52
2023-01-29T17:14:36.005Z,30.02
2023-01-29T17:17:05.490Z,27.70
2023-01-29T17:19:33.991Z,26.10
2023-01-29T17:22:01.962Z,26.52
2023-01-29T17:24:31.979Z,27.27
2023-01-29T17:26:59.795Z,29.02
2023-01-29T17:29:27.362Z,31.95
2023-01-29T17:31:57.142Z,34.05
2023-01-29T17:34:24.834Z,30.38
2023-01-29T17:36:52.537Z,30.58
2023-01-29T17:39:22.436Z,30.05
2023-01-29T17:41:50.245Z,28.55
2023-01-29T17:44:17.819Z,27.95
2023-01-29T17:46:45.621Z,31.50
2023-01-29T17:49:13.884Z,31.80
2023-01-29T17:51:41.515Z,29.02
2023-01-29T17:54:11.326Z,33.67
2023-01-29T17:56:39.121Z,33.78
2023-01-29T17:59:06.753Z,31.85
2023-01-29T18:01:36.566Z,36.60
2023-01-29T18:04:05.340Z,29.75
2023-01-29T18:06:34.288Z,30.10
2023-01-29T18:09:04.453Z,31.92
2023-01-29T18:11:35.008Z,31.73
2023-01-29T18:14:13.813Z,29.63
2023-01-29T18:16:46.609Z,29.67
2023-01-29T18:19:17.806Z,30.58
2023-01-29T18:21:45.801Z,32.45
2023-01-29T18:24:16.254Z,30.20
2023-01-29T18:26:44.557Z,32.00
2023-01-29T18:29:13.041Z,30.95
2023-01-29T18:31:45.628Z,32.28
2023-01-29T18:34:14.117Z,35.05
2023-01-29T18:36:42.526Z,33.30
2023-01-29T18:39:14.272Z,33.83
2023-01-29T18:41:42.582Z,29.58
2023-01-29T18:44:11.099Z,35.42
2023-01-29T18:46:49.405Z,27.50
2023-01-29T18:49:16.999Z,36.05
2023-01-29T18:51:54.026Z,34.13
2023-01-29T18:54:22.215Z,33.28
2023-01-29T18:57:06.235Z,32.10
2023-01-29T18:59:44.760Z,37.05
2023-01-29T19:02:17.980Z,36.75
2023-01-29T19:04:46.708Z,37.95
2023-01-29T19:07:21.572Z,32.88
2023-01-29T19:09:49.479Z,38.00
2023-01-29T19:12:19.370Z,35.88
2023-01-29T19:14:49.385Z,40.92
2023-01-29T19:17:17.301Z,40.38
2023-01-29T19:19:45.291Z,38.47
2023-01-29T19:22:16.620Z,38.58
2023-01-29T19:24:44.319Z,37.83
2023-01-29T19:27:12.900Z,34.47
2023-01-29T19:29:43.577Z,41.17
2023-01-29T19:32:12.576Z,37.25
2023-01-29T19:34:48.787Z,33.85
2023-01-29T19:37:16.505Z,39.20
2023-01-29T19:39:44.800Z,37.03
2023-01-29T19:42:15.994Z,34.88
2023-01-29T19:44:43.537Z,38.60
2023-01-29T19:47:13.812Z,31.17
2023-01-29T19:49:42.924Z,37.20
2023-01-29T19:52:11.152Z,32.35
2023-01-29T19:54:40.646Z,33.40
2023-01-29T19:57:10.434Z,33.55
2023-01-29T19:59:38.052Z,29.17
2023-01-29T20:02:09.101Z,37.72
2023-01-29T20:04:39.304Z,32.95
2023-01-29T20:07:06.939Z,29.55
2023-01-29T20:09:37.129Z,30.52
2023-01-29T20:12:07.239Z,34.63
2023-01-29T20:14:34.916Z,31.63
2023-01-29T20:17:07.813Z,32.17
2023-01-29T20:19:38.335Z,29.27
2023-01-29T20:22:14.849Z,28.52
2023-01-29T20:24:44.208Z,30.30
2023-01-29T20:27:12.007Z,23.98
2023-01-29T20:29:40.193Z,30.77
2023-01-29T20:32:13.625Z,24.13
2023-01-29T20:34:43.833Z,30.02
2023-01-29T20:37:19.023Z,30.38
2023-01-29T20:39:47.371Z,45.10
2023-01-29T20:42:16.081Z,37.90
2023-01-29T20:44:45.927Z,31.55
2023-01-29T20:47:15.292Z,38.33
2023-01-29T20:49:43.619Z,32.28
2023-01-29T20:52:14.853Z,28.52
2023-01-29T20:54:46.410Z,29.88
2023-01-29T20:57:22.097Z,28.07
2023-01-29T20:59:53.884Z,32.67
2023-01-29T21:02:22.987Z,30.92
2023-01-29T21:04:53.676Z,32.00
2023-01-29T21:07:21.304Z,35.63
2023-01-29T21:09:48.721Z,25.45
2023-01-29T21:12:37.387Z,31.88
2023-01-29T21:15:25.127Z,30.80
2023-01-29T21:18:15.455Z,31.08
2023-01-29T21:21:03.257Z,29.63
2023-01-29T21:23:53.259Z,30.90
2023-01-29T21:26:41.036Z,30.95
2023-01-29T21:29:31.141Z,26.52
2023-01-29T21:32:18.889Z,27.30
2023-01-29T21:35:09.117Z,25.40
2023-01-29T21:37:56.860Z,29.08
2023-01-29T21:40:46.972Z,25.75
2023-01-29T21:43:34.712Z,30.00
2023-01-29T21:46:22.743Z,29.40
2023-01-29T21:49:10.553Z,27.08
2023-01-29T21:52:00.741Z,26.95
2023-01-29T21:54:48.545Z,52.78
2023-01-29T21:57:38.523Z,83.88
2023-01-29T22:00:26.259Z,33.83
2023-01-29T22:03:16.577Z,34.00
2023-01-29T22:06:04.334Z,32.95
2023-01-29T22:08:54.546Z,35.20
2023-01-29T22:11:42.480Z,33.05
2023-01-29T22:14:30.537Z,31.20
2023-01-29T22:17:18.301Z,33.08
2023-01-29T22:20:08.458Z,34.60
2023-01-29T22:22:56.198Z,34.63
2023-01-29T22:25:46.359Z,31.70
2023-01-29T22:28:34.105Z,34.92
2023-01-29T22:31:24.406Z,34.45
2023-01-29T22:34:12.156Z,29.77
2023-01-29T22:36:42.058Z,33.47
2023-01-29T22:39:35.550Z,37.70
2023-01-29T22:42:06.692Z,35.78
2023-01-29T22:44:54.116Z,54.53
2023-01-29T22:47:34.212Z,56.72
2023-01-29T22:50:02.025Z,63.15
2023-01-29T22:58:31.862Z,52.88
2023-01-29T23:01:00.470Z,44.20
2023-01-29T23:03:43.071Z,45.33
2023-01-29T23:06:23.163Z,40.78
2023-01-29T23:08:59.608Z,41.28
2023-01-29T23:11:32.860Z,43.67
2023-01-29T23:14:08.573Z,40.25
2023-01-29T23:16:39.387Z,52.90
2023-01-29T23:19:17.347Z,53.38
2023-01-29T23:21:54.327Z,46.42
2023-01-29T23:24:27.184Z,46.72
2023-01-29T23:27:06.742Z,45.25
2023-01-29T23:29:37.490Z,73.50
2023-01-29T23:32:08.047Z,51.75
2023-01-29T23:34:41.767Z,45.63
2023-01-29T23:37:10.603Z,45.78
2023-01-29T23:39:40.764Z,47.33
2023-01-29T23:42:10.214Z,45.22
2023-01-29T23:44:41.336Z,51.83
2023-01-29T23:47:10.706Z,45.60
2023-01-29T23:49:41.713Z,47.05
2023-01-29T23:52:10.085Z,54.47
2023-01-29T23:54:37.911Z,51.30
2023-01-29T23:57:08.029Z,61.05
2023-01-29T23:59:35.681Z,75.15
